createdAt,value
2023-01-17T00:02:01.341Z,23.40
2023-01-17T00:05:03.212Z,26.00
2023-01-17T00:08:04.789Z,24.40
2023-01-17T00:10:47.705Z,25.90
2023-01-17T00:13:30.825Z,24.50
2023-01-17T00:16:13.723Z,26.10
2023-01-17T00:19:15.348Z,24.20
2023-01-17T00:22:16.717Z,23.20
2023-01-17T00:25:18.048Z,22.70
2023-01-17T00:28:00.937Z,25.20
2023-01-17T00:33:26.692Z,22.80
2023-01-17T00:36:10.531Z,22.20
2023-01-17T00:38:53.411Z,22.80
2023-01-17T00:44:37.800Z,22.20
2023-01-17T00:47:39.640Z,24.20
2023-01-17T00:50:41.284Z,22.60
2023-01-17T00:53:42.727Z,23.20
2023-01-17T00:56:44.421Z,22.40
2023-01-17T00:59:45.712Z,22.90
2023-01-17T01:02:47.991Z,23.00
2023-01-17T01:05:49.892Z,22.30
2023-01-17T01:08:52.666Z,22.50
2023-01-17T01:11:54.750Z,21.60
2023-01-17T01:14:56.905Z,21.50
2023-01-17T01:17:58.410Z,23.30
2023-01-17T01:21:00.127Z,22.60
2023-01-17T01:24:01.803Z,22.50
2023-01-17T01:27:03.497Z,22.10
2023-01-17T01:30:05.547Z,25.00
2023-01-17T01:33:07.206Z,21.50
2023-01-17T01:35:54.940Z,21.60
2023-01-17T01:38:38.244Z,21.30
2023-01-17T01:41:21.133Z,22.10
2023-01-17T01:44:04.682Z,20.90
2023-01-17T01:46:47.550Z,22.30
2023-01-17T01:52:14.592Z,22.50
2023-01-17T01:55:09.635Z,21.90
2023-01-17T01:58:00.173Z,23.20
2023-01-17T02:00:43.131Z,23.10
2023-01-17T02:04:02.355Z,23.00
2023-01-17T02:07:54.907Z,21.50
2023-01-17T02:11:27.582Z,22.40
2023-01-17T02:15:11.594Z,21.60
2023-01-17T02:19:10.714Z,22.90
2023-01-17T02:23:05.044Z,23.50
2023-01-17T02:27:03.700Z,22.50
2023-01-17T02:30:56.461Z,22.90
2023-01-17T02:34:43.889Z,23.60
2023-01-17T02:38:31.759Z,22.40
2023-01-17T02:42:21.122Z,24.60
2023-01-17T02:46:26.071Z,24.70
2023-01-17T02:50:11.336Z,23.40
2023-01-17T02:53:50.439Z,23.60
2023-01-17T02:58:05.553Z,24.10
2023-01-17T03:02:07.316Z,25.50
2023-01-17T03:06:08.828Z,24.90
2023-01-17T03:10:12.817Z,25.90
2023-01-17T03:13:57.705Z,26.90
2023-01-17T03:17:51.645Z,26.60
2023-01-17T03:21:39.207Z,26.90
2023-01-17T03:25:34.420Z,26.10
2023-01-17T03:28:36.501Z,27.60
2023-01-17T03:31:52.561Z,26.20
2023-01-17T03:35:50.591Z,27.40
2023-01-17T03:39:37.056Z,26.50
2023-01-17T03:43:11.733Z,27.40
2023-01-17T03:47:13.260Z,24.90
2023-01-17T03:50:39.981Z,28.20
2023-01-17T03:54:33.999Z,25.70
2023-01-17T03:58:32.858Z,27.10
2023-01-17T04:02:00.157Z,28.30
2023-01-17T04:04:57.755Z,26.10
2023-01-17T04:08:26.242Z,26.40
2023-01-17T04:12:30.234Z,27.10
2023-01-17T04:16:10.132Z,26.60
2023-01-17T04:19:57.662Z,23.50
2023-01-17T04:23:34.470Z,26.80
2023-01-17T04:27:00.964Z,24.60
2023-01-17T04:30:04.731Z,25.30
2023-01-17T04:33:33.104Z,25.70
2023-01-17T04:36:56.623Z,25.30
2023-01-17T04:40:51.852Z,25.50
2023-01-17T04:44:25.480Z,23.40
2023-01-17T04:47:53.281Z,24.10
2023-01-17T04:52:03.450Z,23.40
2023-01-17T04:55:47.552Z,23.10
2023-01-17T04:59:51.608Z,24.00
2023-01-17T05:03:25.135Z,21.40
2023-01-17T05:06:52.600Z,25.20
2023-01-17T05:10:04.974Z,23.70
2023-01-17T05:13:58.035Z,23.60
2023-01-17T05:17:36.011Z,26.50
2023-01-17T05:21:19.768Z,25.40
2023-01-17T05:25:04.739Z,24.90
2023-01-17T05:28:42.088Z,24.70
2023-01-17T05:32:46.162Z,24.00
2023-01-17T05:36:37.273Z,23.90
2023-01-17T05:40:21.011Z,23.20
2023-01-17T05:44:24.974Z,25.20
2023-01-17T05:47:49.384Z,23.50
2023-01-17T05:51:18.806Z,25.40
2023-01-17T05:55:07.665Z,22.90
2023-01-17T05:58:40.152Z,22.00
2023-01-17T06:02:32.831Z,20.70
2023-01-17T06:06:16.788Z,20.10
2023-01-17T06:09:43.560Z,18.80
2023-01-17T06:13:22.122Z,18.10
2023-01-17T06:17:26.023Z,16.70
2023-01-17T06:21:13.022Z,17.30
2023-01-17T06:25:09.631Z,16.50
2023-01-17T06:28:54.469Z,18.10
2023-01-17T06:32:41.479Z,17.30
2023-01-17T06:36:13.284Z,15.20
2023-01-17T06:40:05.846Z,14.30
2023-01-17T06:43:51.093Z,13.30
2023-01-17T06:47:49.345Z,12.10
2023-01-17T06:51:10.901Z,12.00
2023-01-17T06:55:14.900Z,11.80
2023-01-17T06:59:08.182Z,11.30
2023-01-17T07:03:12.978Z,10.70
2023-01-17T07:06:24.161Z,11.10
2023-01-17T07:10:07.251Z,11.00
2023-01-17T07:13:39.799Z,12.60
2023-01-17T07:16:55.291Z,13.20
2023-01-17T07:20:32.023Z,10.70
2023-01-17T07:24:01.753Z,10.60
2023-01-17T07:27:19.142Z,10.20
2023-01-17T07:31:03.002Z,9.90
2023-01-17T07:34:26.481Z,9.50
2023-01-17T07:38:12.166Z,8.80
2023-01-17T07:41:31.101Z,8.60
2023-01-17T07:44:54.648Z,8.20
2023-01-17T07:48:13.719Z,8.20
2023-01-17T07:52:05.129Z,8.60
2023-01-17T07:56:01.839Z,7.70
2023-01-17T07:59:38.202Z,7.80
2023-01-17T08:02:44.843Z,7.90
2023-01-17T08:06:57.813Z,8.60
2023-01-17T08:10:41.634Z,7.80
2023-01-17T08:14:05.341Z,8.30
2023-01-17T08:17:44.231Z,8.80
2023-01-17T08:21:38.278Z,7.60
2023-01-17T08:28:51.581Z,7.20
2023-01-17T08:32:26.192Z,7.50
2023-01-17T08:35:22.051Z,6.90
2023-01-17T08:39:02.983Z,6.40
2023-01-17T08:42:46.820Z,7.00
2023-01-17T08:50:06.354Z,5.70
2023-01-17T08:53:50.242Z,7.10
2023-01-17T09:00:56.632Z,5.30
2023-01-17T09:04:23.577Z,5.00
2023-01-17T09:07:47.546Z,5.00
2023-01-17T09:10:51.044Z,5.00
2023-01-17T09:14:28.781Z,4.70
2023-01-17T09:18:14.944Z,5.20
2023-01-17T09:21:47.566Z,5.10
2023-01-17T09:25:26.479Z,4.70
2023-01-17T09:28:59.287Z,4.10
2023-01-17T09:32:23.383Z,4.70
2023-01-17T09:35:53.014Z,4.70
2023-01-17T09:39:48.022Z,4.40
2023-01-17T09:43:12.195Z,5.10
2023-01-17T09:47:09.803Z,4.50
2023-01-17T09:51:08.539Z,4.80
2023-01-17T09:54:59.096Z,4.50
2023-01-17T09:58:30.620Z,4.10
2023-01-17T10:02:06.766Z,4.10
2023-01-17T10:05:40.832Z,4.50
2023-01-17T10:09:14.867Z,4.00
2023-01-17T10:12:51.518Z,4.10
2023-01-17T10:16:15.238Z,3.80
2023-01-17T10:19:51.654Z,3.90
2023-01-17T10:23:27.639Z,4.00
2023-01-17T10:27:13.247Z,4.00
2023-01-17T10:30:43.526Z,4.30
2023-01-17T10:34:06.597Z,4.00
2023-01-17T10:38:22.867Z,3.80
2023-01-17T10:42:35.557Z,4.20
2023-01-17T10:46:05.753Z,3.60
2023-01-17T10:49:49.024Z,3.50
2023-01-17T10:53:30.563Z,3.20
2023-01-17T10:56:42.447Z,3.60
2023-01-17T11:00:21.410Z,3.40
2023-01-17T11:03:12.009Z,3.60
2023-01-17T11:07:02.479Z,3.30
2023-01-17T11:10:36.673Z,3.40
2023-01-17T11:14:15.246Z,3.00
2023-01-17T11:17:07.104Z,3.40
2023-01-17T11:21:00.690Z,3.40
2023-01-17T11:23:57.705Z,3.30
2023-01-17T11:27:42.853Z,5.00
2023-01-17T11:30:52.773Z,3.90
2023-01-17T11:34:42.735Z,4.20
2023-01-17T11:37:42.322Z,3.50
2023-01-17T11:40:38.345Z,3.50
2023-01-17T11:44:05.278Z,3.80
2023-01-17T11:47:38.939Z,3.50
2023-01-17T11:53:30.253Z,3.90
2023-01-17T11:56:40.892Z,3.50
2023-01-17T11:59:48.059Z,4.00
2023-01-17T12:02:47.549Z,3.80
2023-01-17T12:05:51.272Z,3.50
2023-01-17T12:09:33.102Z,3.60
2023-01-17T12:13:45.279Z,3.80
2023-01-17T12:17:29.764Z,2.90
2023-01-17T12:21:08.451Z,2.70
2023-01-17T12:24:17.702Z,3.10
2023-01-17T12:27:55.852Z,2.80
2023-01-17T12:31:27.510Z,2.80
2023-01-17T12:34:57.929Z,2.80
2023-01-17T12:38:27.315Z,3.50
2023-01-17T12:42:08.960Z,2.70
2023-01-17T12:45:53.922Z,3.00
2023-01-17T12:49:24.691Z,2.40
2023-01-17T12:52:37.855Z,2.70
2023-01-17T12:56:36.419Z,3.90
2023-01-17T12:59:52.685Z,2.50
2023-01-17T13:02:45.592Z,3.00
2023-01-17T13:06:11.691Z,2.50
2023-01-17T13:09:01.900Z,2.90
2023-01-17T13:12:35.921Z,2.20
2023-01-17T13:15:59.592Z,2.40
2023-01-17T13:19:03.054Z,2.60
2023-01-17T13:22:44.912Z,2.50
2023-01-17T13:26:17.393Z,3.20
2023-01-17T13:29:40.732Z,2.20
2023-01-17T13:33:29.293Z,2.40
2023-01-17T13:37:25.154Z,2.30
2023-01-17T13:41:29.851Z,2.30
2023-01-17T13:44:39.025Z,1.50
2023-01-17T13:47:48.320Z,1.70
2023-01-17T13:51:30.395Z,1.90
2023-01-17T13:54:52.945Z,2.20
2023-01-17T13:58:45.558Z,1.90
2023-01-17T14:02:03.401Z,2.40
2023-01-17T14:05:17.769Z,2.60
2023-01-17T14:08:27.417Z,2.50
2023-01-17T14:11:51.992Z,2.80
2023-01-17T14:14:36.816Z,3.70
2023-01-17T14:18:00.480Z,2.50
2023-01-17T14:21:11.635Z,3.20
2023-01-17T14:24:13.155Z,2.80
2023-01-17T14:27:52.547Z,3.20
2023-01-17T14:31:49.273Z,16.50
2023-01-17T14:35:17.495Z,16.00
2023-01-17T14:38:47.165Z,6.40
2023-01-17T14:42:00.382Z,3.70
2023-01-17T14:44:53.247Z,2.40
2023-01-17T14:48:19.423Z,2.50
2023-01-17T14:51:52.319Z,2.80
2023-01-17T14:55:18.575Z,2.50
2023-01-17T14:58:16.329Z,2.30
2023-01-17T15:01:13.111Z,2.80
2023-01-17T15:04:11.035Z,3.00
2023-01-17T15:07:20.435Z,2.40
2023-01-17T15:10:19.211Z,2.40
2023-01-17T15:13:11.994Z,2.30
2023-01-17T15:16:28.568Z,2.20
2023-01-17T15:20:11.608Z,2.70
2023-01-17T15:22:54.952Z,2.50
2023-01-17T15:26:12.369Z,2.30
2023-01-17T15:29:06.230Z,2.50
2023-01-17T15:31:55.172Z,2.70
2023-01-17T15:34:45.172Z,3.60
2023-01-17T15:38:38.814Z,3.60
2023-01-17T15:45:11.627Z,3.70
2023-01-17T15:48:51.753Z,3.40
2023-01-17T15:52:01.496Z,4.20
2023-01-17T15:55:46.015Z,4.60
2023-01-17T15:58:48.656Z,4.70
2023-01-17T16:02:15.119Z,5.20
2023-01-17T16:05:24.888Z,4.70
2023-01-17T16:08:28.261Z,5.40
2023-01-17T16:11:11.747Z,5.70
2023-01-17T16:14:15.286Z,5.60
2023-01-17T16:17:13.542Z,6.90
2023-01-17T16:20:37.294Z,6.30
2023-01-17T16:23:32.792Z,6.10
2023-01-17T16:26:56.757Z,6.50
2023-01-17T16:30:00.429Z,5.80
2023-01-17T16:32:48.981Z,6.40
2023-01-17T16:35:34.404Z,5.70
2023-01-17T16:38:19.075Z,6.30
2023-01-17T16:41:04.587Z,5.80
2023-01-17T16:44:08.355Z,6.70
2023-01-17T16:47:21.021Z,6.00
2023-01-17T16:50:50.450Z,6.10
2023-01-17T16:53:47.193Z,6.40
2023-01-17T16:56:46.832Z,7.40
2023-01-17T16:59:51.100Z,7.00
2023-01-17T17:03:31.912Z,7.80
2023-01-17T17:06:18.304Z,7.20
2023-01-17T17:09:11.797Z,7.80
2023-01-17T17:12:07.047Z,8.30
2023-01-17T17:15:19.677Z,7.80
2023-01-17T17:18:16.875Z,8.20
2023-01-17T17:21:05.289Z,8.00
2023-01-17T17:24:20.258Z,8.20
2023-01-17T17:27:26.598Z,8.00
2023-01-17T17:30:36.645Z,8.30
2023-01-17T17:34:07.392Z,8.20
2023-01-17T17:37:12.209Z,7.90
2023-01-17T17:40:24.655Z,7.70
2023-01-17T17:44:03.457Z,8.50
2023-01-17T17:47:05.702Z,9.10
2023-01-17T17:50:33.122Z,8.50
2023-01-17T17:53:32.409Z,9.10
2023-01-17T17:56:25.985Z,8.20
2023-01-17T17:59:22.286Z,8.50
2023-01-17T18:02:11.144Z,9.90
2023-01-17T18:05:31.166Z,9.30
2023-01-17T18:08:55.166Z,9.90
2023-01-17T18:11:53.017Z,10.30
2023-01-17T18:14:40.434Z,13.80
2023-01-17T18:17:52.498Z,16.20
2023-01-17T18:21:39.278Z,15.50
2023-01-17T18:24:24.457Z,11.90
2023-01-17T18:27:43.811Z,12.90
2023-01-17T18:30:47.145Z,11.00
2023-01-17T18:33:52.291Z,13.10
2023-01-17T18:37:18.804Z,12.60
2023-01-17T18:40:31.903Z,12.40
2023-01-17T18:43:58.532Z,11.30
2023-01-17T18:47:27.678Z,11.20
2023-01-17T18:50:46.871Z,13.10
2023-01-17T18:54:07.241Z,13.70
2023-01-17T18:57:47.695Z,15.20
2023-01-17T19:01:04.802Z,16.40
2023-01-17T19:04:06.792Z,21.40
2023-01-17T19:07:45.868Z,23.20
2023-01-17T19:11:22.690Z,22.60
2023-01-17T19:14:44.912Z,24.30
2023-01-17T19:17:43.102Z,21.90
2023-01-17T19:20:47.785Z,22.80
2023-01-17T19:24:42.848Z,22.40
2023-01-17T19:28:09.200Z,20.80
2023-01-17T19:32:13.109Z,20.40
2023-01-17T19:36:06.940Z,18.00
2023-01-17T19:39:40.400Z,23.80
2023-01-17T19:43:12.034Z,27.50
2023-01-17T19:46:55.530Z,33.10
2023-01-17T19:50:22.197Z,32.80
2023-01-17T19:54:25.392Z,31.10
2023-01-17T19:58:13.218Z,26.80
2023-01-17T20:01:37.216Z,27.60
2023-01-17T20:04:51.961Z,27.80
2023-01-17T20:08:15.550Z,38.70
2023-01-17T20:11:23.389Z,34.30
2023-01-17T20:14:47.070Z,43.80
2023-01-17T20:21:13.759Z,66.30
2023-01-17T20:24:17.245Z,73.70
2023-01-17T20:27:13.086Z,72.40
2023-01-17T20:30:37.901Z,83.40
2023-01-17T20:37:29.569Z,86.00
2023-01-17T20:40:53.356Z,81.80
2023-01-17T20:44:18.841Z,86.40
2023-01-17T20:47:41.407Z,87.30
2023-01-17T20:51:06.990Z,79.70
2023-01-17T20:54:20.766Z,86.10
2023-01-17T20:57:50.143Z,87.40
2023-01-17T21:01:18.430Z,96.50
2023-01-17T21:05:03.381Z,93.40
2023-01-17T21:08:00.390Z,94.10
2023-01-17T21:11:20.329Z,92.60
2023-01-17T21:14:46.377Z,91.10
2023-01-17T21:18:08.873Z,87.60
2023-01-17T21:21:47.413Z,85.80
2023-01-17T21:24:53.727Z,81.50
2023-01-17T21:27:53.255Z,79.30
2023-01-17T21:31:25.915Z,82.40
2023-01-17T21:34:45.032Z,76.50
2023-01-17T21:38:09.321Z,81.70
2023-01-17T21:41:16.434Z,78.50
2023-01-17T21:44:16.417Z,81.10
2023-01-17T21:47:28.803Z,82.30
2023-01-17T21:50:52.491Z,81.60
2023-01-17T21:54:44.311Z,81.60
2023-01-17T21:59:05.984Z,80.30
2023-01-17T22:01:58.368Z,80.80
2023-01-17T22:05:04.735Z,77.70
2023-01-17T22:08:23.159Z,78.40
2023-01-17T22:12:09.155Z,78.20
2023-01-17T22:14:55.610Z,77.40
2023-01-17T22:18:56.455Z,74.50
2023-01-17T22:21:48.610Z,68.90
2023-01-17T22:24:56.509Z,73.50
2023-01-17T22:27:48.777Z,68.00
2023-01-17T22:31:01.205Z,74.00
2023-01-17T22:34:24.165Z,67.10
2023-01-17T22:37:58.043Z,67.20
2023-01-17T22:40:50.388Z,65.40
2023-01-17T22:44:18.528Z,60.50
2023-01-17T22:47:22.942Z,60.70
2023-01-17T22:50:29.208Z,58.60
2023-01-17T22:53:42.387Z,58.80
2023-01-17T22:57:05.159Z,57.00
2023-01-17T23:00:20.346Z,51.00
2023-01-17T23:03:32.934Z,51.30
2023-01-17T23:06:45.743Z,53.00
2023-01-17T23:09:49.425Z,51.70
2023-01-17T23:16:29.025Z,44.60
2023-01-17T23:20:20.314Z,48.10
2023-01-17T23:23:54.688Z,50.00
2023-01-17T23:27:22.742Z,46.90
2023-01-17T23:30:19.967Z,44.70
2023-01-17T23:33:07.903Z,48.10
2023-01-17T23:36:40.653Z,50.50
2023-01-17T23:39:43.788Z,50.00
2023-01-17T23:43:19.671Z,49.10
2023-01-17T23:47:03.364Z,45.80
2023-01-17T23:50:24.558Z,50.70
2023-01-17T23:53:24.753Z,51.40
2023-01-17T23:56:59.402Z,53.40
2023-01-17T23:59:49.210Z,52.70
